sensor_id;sensor_type;location;lat;lon;timestamp;pressure;altitude;pressure_sealevel;temperature;humidity
18022;BME280;9136;48.822;7.966;2023-02-16T00:00:26;101418.66;;;0.47;100.00
18022;BME280;9136;48.822;7.966;2023-02-16T00:03:19;101429.00;;;0.47;100.00
18022;BME280;9136;48.822;7.966;2023-02-16T00:06:07;101427.19;;;0.43;100.00
18022;BME280;9136;48.822;7.966;2023-02-16T00:08:59;101399.06;;;0.23;100.00
18022;BME280;9136;48.822;7.966;2023-02-16T00:11:47;101441.56;;;0.33;100.00
18022;BME280;9136;48.822;7.966;2023-02-16T00:14:53;101441.91;;;0.15;100.00
18022;BME280;9136;48.822;7.966;2023-02-16T00:17:41;101446.28;;;0.18;100.00
18022;BME280;9136;48.822;7.966;2023-02-16T00:20:30;101447.53;;;0.31;100.00
18022;BME280;9136;48.822;7.966;2023-02-16T00:23:18;101453.56;;;0.31;100.00
18022;BME280;9136;48.822;7.966;2023-02-16T00:26:13;101435.69;;;0.09;100.00
18022;BME280;9136;48.822;7.966;2023-02-16T00:29:01;101431.53;;;0.14;100.00
18022;BME280;9136;48.822;7.966;2023-02-16T00:31:51;101439.94;;;0.37;100.00
18022;BME280;9136;48.822;7.966;2023-02-16T00:34:40;101444.84;;;0.27;100.00
18022;BME280;9136;48.822;7.966;2023-02-16T00:37:29;101436.88;;;0.20;100.00
18022;BME280;9136;48.822;7.966;2023-02-16T00:40:17;101426.56;;;0.20;100.00
18022;BME280;9136;48.822;7.966;2023-02-16T00:43:05;101421.88;;;0.08;100.00
18022;BME280;9136;48.822;7.966;2023-02-16T00:45:54;101435.34;;;0.26;100.00
18022;BME280;9136;48.822;7.966;2023-02-16T00:48:42;101432.78;;;0.28;100.00
18022;BME280;9136;48.822;7.966;2023-02-16T00:51:30;101422.41;;;0.26;100.00
18022;BME280;9136;48.822;7.966;2023-02-16T00:54:19;101409.63;;;0.31;100.00
18022;BME280;9136;48.822;7.966;2023-02-16T00:57:09;101402.91;;;0.38;100.00
18022;BME280;9136;48.822;7.966;2023-02-16T01:00:00;101402.91;;;0.38;100.00
18022;BME280;9136;48.822;7.966;2023-02-16T01:02:54;101422.84;;;0.42;100.00
18022;BME280;9136;48.822;7.966;2023-02-16T01:05:43;101430.47;;;0.37;100.00
18022;BME280;9136;48.822;7.966;2023-02-16T01:08:30;101428.13;;;0.46;100.00
18022;BME280;9136;48.822;7.966;2023-02-16T01:11:37;101434.06;;;0.42;100.00
18022;BME280;9136;48.822;7.966;2023-02-16T01:14:25;101412.34;;;0.36;100.00
18022;BME280;9136;48.822;7.966;2023-02-16T01:17:13;101423.78;;;0.44;100.00
18022;BME280;9136;48.822;7.966;2023-02-16T01:20:01;101416.78;;;0.40;100.00
18022;BME280;9136;48.822;7.966;2023-02-16T01:22:50;101415.94;;;0.41;100.00
18022;BME280;9136;48.822;7.966;2023-02-16T01:25:38;101401.00;;;0.31;100.00
18022;BME280;9136;48.822;7.966;2023-02-16T01:28:28;101418.38;;;0.36;100.00
18022;BME280;9136;48.822;7.966;2023-02-16T01:31:16;101420.84;;;0.32;100.00
18022;BME280;9136;48.822;7.966;2023-02-16T01:34:04;101417.34;;;0.30;100.00
18022;BME280;9136;48.822;7.966;2023-02-16T01:36:52;101425.38;;;0.39;100.00
18022;BME280;9136;48.822;7.966;2023-02-16T01:39:40;101432.03;;;0.31;100.00
18022;BME280;9136;48.822;7.966;2023-02-16T01:42:32;101418.00;;;0.22;100.00
18022;BME280;9136;48.822;7.966;2023-02-16T01:45:29;101424.44;;;0.07;100.00
18022;BME280;9136;48.822;7.966;2023-02-16T01:48:21;101430.78;;;0.18;100.00
18022;BME280;9136;48.822;7.966;2023-02-16T01:51:17;101430.78;;;0.18;100.00
18022;BME280;9136;48.822;7.966;2023-02-16T01:54:10;101428.03;;;0.12;100.00
18022;BME280;9136;48.822;7.966;2023-02-16T01:57:14;101433.84;;;0.35;100.00
18022;BME280;9136;48.822;7.966;2023-02-16T02:00:16;101437.00;;;0.24;100.00
18022;BME280;9136;48.822;7.966;2023-02-16T02:03:10;101418.06;;;0.25;100.00
18022;BME280;9136;48.822;7.966;2023-02-16T02:06:17;101413.38;;;0.11;100.00
18022;BME280;9136;48.822;7.966;2023-02-16T02:09:12;101392.31;;;-0.02;100.00
18022;BME280;9136;48.822;7.966;2023-02-16T02:12:06;101423.59;;;0.08;100.00
18022;BME280;9136;48.822;7.966;2023-02-16T02:14:55;101406.25;;;0.04;100.00
18022;BME280;9136;48.822;7.966;2023-02-16T02:17:43;101395.75;;;-0.03;100.00
18022;BME280;9136;48.822;7.966;2023-02-16T02:20:44;101397.44;;;-0.03;100.00
18022;BME280;9136;48.822;7.966;2023-02-16T02:24:17;101388.88;;;-0.02;100.00
18022;BME280;9136;48.822;7.966;2023-02-16T02:27:19;101386.44;;;0.03;100.00
18022;BME280;9136;48.822;7.966;2023-02-16T02:30:26;101398.63;;;0.08;100.00
18022;BME280;9136;48.822;7.966;2023-02-16T02:33:36;101392.50;;;0.05;100.00
18022;BME280;9136;48.822;7.966;2023-02-16T02:36:33;101380.81;;;-0.13;100.00
18022;BME280;9136;48.822;7.966;2023-02-16T02:39:33;101374.38;;;0.03;100.00
18022;BME280;9136;48.822;7.966;2023-02-16T02:42:32;101357.84;;;-0.04;100.00
18022;BME280;9136;48.822;7.966;2023-02-16T02:45:27;101380.16;;;-0.06;100.00
18022;BME280;9136;48.822;7.966;2023-02-16T02:48:18;101388.88;;;-0.02;100.00
18022;BME280;9136;48.822;7.966;2023-02-16T02:51:11;101386.41;;;0.01;100.00
18022;BME280;9136;48.822;7.966;2023-02-16T02:54:21;101385.09;;;-0.13;100.00
18022;BME280;9136;48.822;7.966;2023-02-16T02:57:32;101390.22;;;-0.15;100.00
18022;BME280;9136;48.822;7.966;2023-02-16T03:00:40;101395.50;;;-0.10;100.00
18022;BME280;9136;48.822;7.966;2023-02-16T03:03:35;101396.22;;;-0.16;100.00
18022;BME280;9136;48.822;7.966;2023-02-16T03:06:28;101390.63;;;-0.30;100.00
18022;BME280;9136;48.822;7.966;2023-02-16T03:09:17;101386.78;;;-0.44;100.00
18022;BME280;9136;48.822;7.966;2023-02-16T03:12:07;101384.44;;;-0.36;100.00
18022;BME280;9136;48.822;7.966;2023-02-16T03:15:15;101393.72;;;-0.41;100.00
18022;BME280;9136;48.822;7.966;2023-02-16T03:18:06;101396.22;;;-0.44;100.00
18022;BME280;9136;48.822;7.966;2023-02-16T03:21:13;101404.00;;;-0.43;100.00
18022;BME280;9136;48.822;7.966;2023-02-16T03:24:22;101399.59;;;-0.47;100.00
18022;BME280;9136;48.822;7.966;2023-02-16T03:27:31;101402.81;;;-0.54;100.00
18022;BME280;9136;48.822;7.966;2023-02-16T03:30:39;101390.28;;;-0.42;100.00
18022;BME280;9136;48.822;7.966;2023-02-16T03:33:27;101387.69;;;-0.42;100.00
18022;BME280;9136;48.822;7.966;2023-02-16T03:36:16;101390.84;;;-0.50;100.00
18022;BME280;9136;48.822;7.966;2023-02-16T03:39:05;101380.03;;;-0.39;100.00
18022;BME280;9136;48.822;7.966;2023-02-16T03:41:54;101367.75;;;-0.47;100.00
18022;BME280;9136;48.822;7.966;2023-02-16T03:44:42;101374.13;;;-0.63;100.00
18022;BME280;9136;48.822;7.966;2023-02-16T03:47:31;101382.81;;;-0.60;100.00
18022;BME280;9136;48.822;7.966;2023-02-16T03:50:19;101380.84;;;-0.68;100.00
18022;BME280;9136;48.822;7.966;2023-02-16T03:53:07;101378.34;;;-0.67;100.00
18022;BME280;9136;48.822;7.966;2023-02-16T03:55:55;101376.66;;;-0.65;100.00
18022;BME280;9136;48.822;7.966;2023-02-16T03:58:43;101395.03;;;-0.55;100.00
18022;BME280;9136;48.822;7.966;2023-02-16T04:01:30;101400.81;;;-0.63;100.00
18022;BME280;9136;48.822;7.966;2023-02-16T04:04:20;101388.75;;;-0.64;100.00
18022;BME280;9136;48.822;7.966;2023-02-16T04:07:07;101399.16;;;-0.61;100.00
18022;BME280;9136;48.822;7.966;2023-02-16T04:09:55;101407.38;;;-0.72;100.00
18022;BME280;9136;48.822;7.966;2023-02-16T04:12:43;101390.16;;;-0.73;100.00
18022;BME280;9136;48.822;7.966;2023-02-16T04:15:32;101399.63;;;-0.72;100.00
18022;BME280;9136;48.822;7.966;2023-02-16T04:18:19;101410.16;;;-0.66;100.00
18022;BME280;9136;48.822;7.966;2023-02-16T04:21:09;101389.91;;;-0.81;100.00
18022;BME280;9136;48.822;7.966;2023-02-16T04:23:56;101393.22;;;-0.85;100.00
18022;BME280;9136;48.822;7.966;2023-02-16T04:26:44;101409.22;;;-0.68;100.00
18022;BME280;9136;48.822;7.966;2023-02-16T04:29:33;101410.75;;;-0.75;100.00
18022;BME280;9136;48.822;7.966;2023-02-16T04:32:21;101410.88;;;-0.70;100.00
18022;BME280;9136;48.822;7.966;2023-02-16T04:35:09;101412.84;;;-0.63;100.00
18022;BME280;9136;48.822;7.966;2023-02-16T04:37:58;101408.31;;;-0.70;100.00
18022;BME280;9136;48.822;7.966;2023-02-16T04:40:45;101408.25;;;-0.72;100.00
18022;BME280;9136;48.822;7.966;2023-02-16T04:43:33;101393.44;;;-0.77;100.00
18022;BME280;9136;48.822;7.966;2023-02-16T04:46:21;101401.88;;;-0.56;100.00
18022;BME280;9136;48.822;7.966;2023-02-16T04:49:09;101408.06;;;-0.51;100.00
18022;BME280;9136;48.822;7.966;2023-02-16T04:51:57;101394.72;;;-0.65;100.00
18022;BME280;9136;48.822;7.966;2023-02-16T04:54:47;101405.44;;;-0.52;100.00
18022;BME280;9136;48.822;7.966;2023-02-16T04:57:35;101402.59;;;-0.60;100.00
18022;BME280;9136;48.822;7.966;2023-02-16T05:00:23;101396.81;;;-0.53;100.00
18022;BME280;9136;48.822;7.966;2023-02-16T05:03:11;101392.88;;;-0.40;100.00
18022;BME280;9136;48.822;7.966;2023-02-16T05:05:59;101386.84;;;-0.41;100.00
18022;BME280;9136;48.822;7.966;2023-02-16T05:08:47;101371.97;;;-0.49;100.00
18022;BME280;9136;48.822;7.966;2023-02-16T05:11:36;101371.03;;;-0.51;100.00
18022;BME280;9136;48.822;7.966;2023-02-16T05:14:42;101381.72;;;-0.39;100.00
18022;BME280;9136;48.822;7.966;2023-02-16T05:17:30;101395.94;;;-0.53;100.00
18022;BME280;9136;48.822;7.966;2023-02-16T05:20:18;101399.78;;;-0.68;100.00
18022;BME280;9136;48.822;7.966;2023-02-16T05:23:26;101402.47;;;-0.65;100.00
18022;BME280;9136;48.822;7.966;2023-02-16T05:26:14;101403.06;;;-0.73;100.00
18022;BME280;9136;48.822;7.966;2023-02-16T05:29:04;101397.28;;;-0.66;100.00
18022;BME280;9136;48.822;7.966;2023-02-16T05:31:52;101408.13;;;-0.76;100.00
18022;BME280;9136;48.822;7.966;2023-02-16T05:34:40;101396.16;;;-0.74;100.00
18022;BME280;9136;48.822;7.966;2023-02-16T05:37:29;101410.00;;;-0.71;100.00
18022;BME280;9136;48.822;7.966;2023-02-16T05:40:17;101414.28;;;-0.71;100.00
18022;BME280;9136;48.822;7.966;2023-02-16T05:43:05;101398.50;;;-0.80;100.00
18022;BME280;9136;48.822;7.966;2023-02-16T05:45:54;101396.94;;;-0.77;100.00
18022;BME280;9136;48.822;7.966;2023-02-16T05:48:42;101391.94;;;-0.98;100.00
18022;BME280;9136;48.822;7.966;2023-02-16T05:51:30;101392.00;;;-0.96;100.00
18022;BME280;9136;48.822;7.966;2023-02-16T05:54:18;101405.34;;;-0.82;100.00
18022;BME280;9136;48.822;7.966;2023-02-16T05:57:08;101406.16;;;-0.83;100.00
18022;BME280;9136;48.822;7.966;2023-02-16T05:59:56;101391.94;;;-0.98;100.00
18022;BME280;9136;48.822;7.966;2023-02-16T06:02:46;101405.81;;;-0.94;100.00
18022;BME280;9136;48.822;7.966;2023-02-16T06:05:33;101403.84;;;-1.01;100.00
18022;BME280;9136;48.822;7.966;2023-02-16T06:08:22;101378.06;;;-1.01;100.00
18022;BME280;9136;48.822;7.966;2023-02-16T06:11:10;101389.44;;;-0.96;100.00
18022;BME280;9136;48.822;7.966;2023-02-16T06:14:13;101412.34;;;-0.78;100.00
18022;BME280;9136;48.822;7.966;2023-02-16T06:17:01;101399.50;;;-0.77;100.00
18022;BME280;9136;48.822;7.966;2023-02-16T06:19:50;101413.59;;;-0.67;100.00
18022;BME280;9136;48.822;7.966;2023-02-16T06:22:38;101409.84;;;-0.77;100.00
18022;BME280;9136;48.822;7.966;2023-02-16T06:25:26;101418.03;;;-0.89;100.00
18022;BME280;9136;48.822;7.966;2023-02-16T06:28:14;101417.34;;;-0.83;100.00
18022;BME280;9136;48.822;7.966;2023-02-16T06:31:02;101418.59;;;-0.97;100.00
18022;BME280;9136;48.822;7.966;2023-02-16T06:33:50;101424.06;;;-0.88;100.00
18022;BME280;9136;48.822;7.966;2023-02-16T06:36:47;101432.56;;;-0.91;100.00
18022;BME280;9136;48.822;7.966;2023-02-16T06:39:35;101429.16;;;-0.90;100.00
18022;BME280;9136;48.822;7.966;2023-02-16T06:42:23;101438.47;;;-0.68;100.00
18022;BME280;9136;48.822;7.966;2023-02-16T06:45:11;101426.22;;;-0.75;100.00
18022;BME280;9136;48.822;7.966;2023-02-16T06:47:59;101424.75;;;-0.94;100.00
18022;BME280;9136;48.822;7.966;2023-02-16T06:50:46;101432.78;;;-0.84;100.00
18022;BME280;9136;48.822;7.966;2023-02-16T06:53:36;101439.66;;;-0.85;100.00
18022;BME280;9136;48.822;7.966;2023-02-16T06:56:23;101441.97;;;-0.93;100.00
18022;BME280;9136;48.822;7.966;2023-02-16T06:59:11;101450.72;;;-0.88;100.00
18022;BME280;9136;48.822;7.966;2023-02-16T07:01:59;101457.19;;;-0.75;100.00
18022;BME280;9136;48.822;7.966;2023-02-16T07:04:47;101439.00;;;-0.78;100.00
18022;BME280;9136;48.822;7.966;2023-02-16T07:07:35;101427.75;;;-0.80;100.00
18022;BME280;9136;48.822;7.966;2023-02-16T07:10:24;101430.69;;;-0.69;100.00
18022;BME280;9136;48.822;7.966;2023-02-16T07:13:12;101428.97;;;-0.69;100.00
18022;BME280;9136;48.822;7.966;2023-02-16T07:16:00;101419.09;;;-0.82;100.00
18022;BME280;9136;48.822;7.966;2023-02-16T07:18:48;101445.88;;;-0.78;100.00
18022;BME280;9136;48.822;7.966;2023-02-16T07:21:36;101426.75;;;-0.85;100.00
18022;BME280;9136;48.822;7.966;2023-02-16T07:24:24;101452.75;;;-0.79;100.00
18022;BME280;9136;48.822;7.966;2023-02-16T07:27:13;101431.25;;;-0.78;100.00
18022;BME280;9136;48.822;7.966;2023-02-16T07:30:01;101439.00;;;-0.78;100.00
18022;BME280;9136;48.822;7.966;2023-02-16T07:32:49;101430.69;;;-0.69;100.00
18022;BME280;9136;48.822;7.966;2023-02-16T07:35:37;101437.91;;;-0.59;100.00
18022;BME280;9136;48.822;7.966;2023-02-16T07:38:24;101427.19;;;-0.71;100.00
18022;BME280;9136;48.822;7.966;2023-02-16T07:41:12;101456.84;;;-0.59;100.00
18022;BME280;9136;48.822;7.966;2023-02-16T07:44:01;101450.13;;;-0.53;100.00
18022;BME280;9136;48.822;7.966;2023-02-16T07:46:49;101424.06;;;-0.61;100.00
18022;BME280;9136;48.822;7.966;2023-02-16T07:49:37;101450.47;;;-0.43;100.00
18022;BME280;9136;48.822;7.966;2023-02-16T07:52:25;101440.06;;;-0.46;100.00
18022;BME280;9136;48.822;7.966;2023-02-16T07:55:16;101435.16;;;-0.38;100.00
18022;BME280;9136;48.822;7.966;2023-02-16T07:58:03;101445.00;;;-0.25;100.00
18022;BME280;9136;48.822;7.966;2023-02-16T08:00:54;101436.50;;;-0.21;100.00
18022;BME280;9136;48.822;7.966;2023-02-16T08:03:42;101446.50;;;-0.05;100.00
18022;BME280;9136;48.822;7.966;2023-02-16T08:06:30;101446.69;;;0.02;100.00
18022;BME280;9136;48.822;7.966;2023-02-16T08:09:17;101458.50;;;0.23;100.00
18022;BME280;9136;48.822;7.966;2023-02-16T08:12:07;101450.72;;;0.22;100.00
18022;BME280;9136;48.822;7.966;2023-02-16T08:14:56;101458.63;;;0.28;100.00
18022;BME280;9136;48.822;7.966;2023-02-16T08:17:45;101458.28;;;0.16;100.00
18022;BME280;9136;48.822;7.966;2023-02-16T08:20:33;101471.44;;;0.23;100.00
18022;BME280;9136;48.822;7.966;2023-02-16T08:23:21;101435.94;;;0.18;100.00
18022;BME280;9136;48.822;7.966;2023-02-16T08:26:09;101464.19;;;0.40;100.00
18022;BME280;9136;48.822;7.966;2023-02-16T08:28:57;101466.75;;;0.40;100.00
18022;BME280;9136;48.822;7.966;2023-02-16T08:31:47;101469.03;;;0.60;100.00
18022;BME280;9136;48.822;7.966;2023-02-16T08:34:36;101457.19;;;0.68;100.00
18022;BME280;9136;48.822;7.966;2023-02-16T08:37:24;101447.75;;;0.70;100.00
18022;BME280;9136;48.822;7.966;2023-02-16T08:40:12;101460.22;;;0.84;100.00
18022;BME280;9136;48.822;7.966;2023-02-16T08:42:59;101459.25;;;0.81;100.00
18022;BME280;9136;48.822;7.966;2023-02-16T08:45:47;101464.03;;;0.97;100.00
18022;BME280;9136;48.822;7.966;2023-02-16T08:48:37;101464.47;;;0.82;100.00
18022;BME280;9136;48.822;7.966;2023-02-16T08:51:31;101454.53;;;0.98;100.00
18022;BME280;9136;48.822;7.966;2023-02-16T08:54:21;101455.81;;;1.15;100.00
18022;BME280;9136;48.822;7.966;2023-02-16T08:57:10;101465.03;;;1.37;100.00
18022;BME280;9136;48.822;7.966;2023-02-16T08:59:58;101448.75;;;1.42;100.00
18022;BME280;9136;48.822;7.966;2023-02-16T09:03:09;101455.22;;;1.60;100.00
18022;BME280;9136;48.822;7.966;2023-02-16T09:05:59;101462.63;;;1.82;100.00
18022;BME280;9136;48.822;7.966;2023-02-16T09:08:51;101460.41;;;1.97;100.00
18022;BME280;9136;48.822;7.966;2023-02-16T09:11:39;101464.22;;;2.13;100.00
18022;BME280;9136;48.822;7.966;2023-02-16T09:14:27;101470.00;;;2.42;100.00
18022;BME280;9136;48.822;7.966;2023-02-16T09:17:15;101474.66;;;2.60;100.00
18022;BME280;9136;48.822;7.966;2023-02-16T09:20:04;101441.03;;;2.65;100.00
18022;BME280;9136;48.822;7.966;2023-02-16T09:22:52;101451.97;;;2.95;100.00
18022;BME280;9136;48.822;7.966;2023-02-16T09:25:41;101458.53;;;3.22;100.00
18022;BME280;9136;48.822;7.966;2023-02-16T09:28:30;101462.34;;;3.43;100.00
18022;BME280;9136;48.822;7.966;2023-02-16T09:31:20;101467.00;;;3.64;100.00
18022;BME280;9136;48.822;7.966;2023-02-16T09:34:15;101472.31;;;3.72;100.00
18022;BME280;9136;48.822;7.966;2023-02-16T09:37:03;101461.25;;;3.85;100.00
18022;BME280;9136;48.822;7.966;2023-02-16T09:39:51;101442.44;;;4.05;100.00
18022;BME280;9136;48.822;7.966;2023-02-16T09:42:51;101455.81;;;4.32;100.00
18022;BME280;9136;48.822;7.966;2023-02-16T09:45:43;101450.94;;;4.58;100.00
18022;BME280;9136;48.822;7.966;2023-02-16T09:48:34;101459.84;;;4.80;100.00
18022;BME280;9136;48.822;7.966;2023-02-16T09:51:26;101458.22;;;4.91;100.00
18022;BME280;9136;48.822;7.966;2023-02-16T09:54:19;101463.72;;;5.20;100.00
18022;BME280;9136;48.822;7.966;2023-02-16T09:57:16;101458.56;;;5.25;100.00
18022;BME280;9136;48.822;7.966;2023-02-16T10:00:18;101454.41;;;5.48;100.00
18022;BME280;9136;48.822;7.966;2023-02-16T10:03:19;101452.75;;;5.59;100.00
18022;BME280;9136;48.822;7.966;2023-02-16T10:06:26;101455.47;;;5.76;100.00
18022;BME280;9136;48.822;7.966;2023-02-16T10:09:16;101450.44;;;5.97;100.00
18022;BME280;9136;48.822;7.966;2023-02-16T10:12:10;101439.28;;;6.23;100.00
18022;BME280;9136;48.822;7.966;2023-02-16T10:15:02;101441.09;;;6.39;100.00
18022;BME280;9136;48.822;7.966;2023-02-16T10:17:57;101441.16;;;6.65;100.00
18022;BME280;9136;48.822;7.966;2023-02-16T10:20:47;101443.78;;;6.74;100.00
18022;BME280;9136;48.822;7.966;2023-02-16T10:23:43;101438.63;;;6.99;100.00
18022;BME280;9136;48.822;7.966;2023-02-16T10:26:35;101436.91;;;7.08;100.00
18022;BME280;9136;48.822;7.966;2023-02-16T10:29:25;101405.53;;;7.11;100.00
18022;BME280;9136;48.822;7.966;2023-02-16T10:32:20;101426.47;;;7.37;100.00
18022;BME280;9136;48.822;7.966;2023-02-16T10:35:15;101415.94;;;7.80;100.00
18022;BME280;9136;48.822;7.966;2023-02-16T10:38:10;101408.91;;;8.00;100.00
18022;BME280;9136;48.822;7.966;2023-02-16T10:41:06;101403.63;;;8.20;100.00
18022;BME280;9136;48.822;7.966;2023-02-16T10:44:02;101412.28;;;8.42;100.00
18022;BME280;9136;48.822;7.966;2023-02-16T10:46:58;101403.25;;;8.87;100.00
18022;BME280;9136;48.822;7.966;2023-02-16T10:49:47;101416.09;;;9.27;100.00
18022;BME280;9136;48.822;7.966;2023-02-16T10:52:38;101408.44;;;9.96;100.00
18022;BME280;9136;48.822;7.966;2023-02-16T10:55:27;101407.38;;;10.11;100.00
18022;BME280;9136;48.822;7.966;2023-02-16T10:58:18;101409.28;;;10.69;100.00
18022;BME280;9136;48.822;7.966;2023-02-16T11:01:12;101390.22;;;12.11;100.00
18022;BME280;9136;48.822;7.966;2023-02-16T11:04:01;101385.28;;;13.49;71.79
18022;BME280;9136;48.822;7.966;2023-02-16T11:07:00;101381.03;;;13.43;65.17
18022;BME280;9136;48.822;7.966;2023-02-16T11:09:53;101373.88;;;13.11;65.11
18022;BME280;9136;48.822;7.966;2023-02-16T11:12:42;101386.03;;;12.42;74.04
18022;BME280;9136;48.822;7.966;2023-02-16T11:15:30;101384.25;;;13.18;66.70
18022;BME280;9136;48.822;7.966;2023-02-16T11:18:27;101372.72;;;12.48;65.25
18022;BME280;9136;48.822;7.966;2023-02-16T11:21:15;101375.13;;;12.96;63.91
18022;BME280;9136;48.822;7.966;2023-02-16T11:24:03;101371.97;;;13.53;57.22
18022;BME280;9136;48.822;7.966;2023-02-16T11:27:05;101381.56;;;14.50;55.95
18022;BME280;9136;48.822;7.966;2023-02-16T11:30:17;101367.06;;;14.03;53.54
18022;BME280;9136;48.822;7.966;2023-02-16T11:33:21;101361.75;;;15.18;50.08
18022;BME280;9136;48.822;7.966;2023-02-16T11:36:21;101360.00;;;14.91;50.88
18022;BME280;9136;48.822;7.966;2023-02-16T11:39:16;101358.78;;;14.45;51.22
18022;BME280;9136;48.822;7.966;2023-02-16T11:42:08;101357.66;;;15.59;48.57
18022;BME280;9136;48.822;7.966;2023-02-16T11:45:06;101339.56;;;15.47;48.37
18022;BME280;9136;48.822;7.966;2023-02-16T11:47:56;101344.91;;;14.37;52.50
18022;BME280;9136;48.822;7.966;2023-02-16T11:50:55;101327.25;;;14.09;53.54
18022;BME280;9136;48.822;7.966;2023-02-16T11:53:44;101334.88;;;14.18;51.62
18022;BME280;9136;48.822;7.966;2023-02-16T11:56:33;101327.94;;;15.00;50.10
18022;BME280;9136;48.822;7.966;2023-02-16T11:59:23;101327.56;;;14.84;49.22
18022;BME280;9136;48.822;7.966;2023-02-16T12:02:34;101309.84;;;15.39;48.23
18022;BME280;9136;48.822;7.966;2023-02-16T12:05:27;101314.41;;;15.34;47.27
18022;BME280;9136;48.822;7.966;2023-02-16T12:08:34;101302.72;;;13.74;50.23
18022;BME280;9136;48.822;7.966;2023-02-16T12:11:33;101299.69;;;13.25;51.17
18022;BME280;9136;48.822;7.966;2023-02-16T12:14:33;101280.69;;;12.76;53.58
18022;BME280;9136;48.822;7.966;2023-02-16T12:17:38;101289.50;;;12.38;56.89
18022;BME280;9136;48.822;7.966;2023-02-16T12:20:39;101288.69;;;12.35;59.53
18022;BME280;9136;48.822;7.966;2023-02-16T12:23:34;101301.38;;;12.56;60.80
18022;BME280;9136;48.822;7.966;2023-02-16T12:26:35;101298.09;;;13.17;57.91
18022;BME280;9136;48.822;7.966;2023-02-16T12:29:36;101279.88;;;13.41;54.44
18022;BME280;9136;48.822;7.966;2023-02-16T12:32:41;101303.88;;;13.95;53.85
18022;BME280;9136;48.822;7.966;2023-02-16T12:35:55;101289.13;;;14.46;52.81
18022;BME280;9136;48.822;7.966;2023-02-16T12:38:52;101301.50;;;14.16;53.11
18022;BME280;9136;48.822;7.966;2023-02-16T12:41:54;101280.69;;;14.05;51.96
18022;BME280;9136;48.822;7.966;2023-02-16T12:44:48;101290.38;;;14.04;52.92
18022;BME280;9136;48.822;7.966;2023-02-16T12:47:40;101280.44;;;14.70;49.28
18022;BME280;9136;48.822;7.966;2023-02-16T12:50:31;101274.13;;;16.21;45.87
18022;BME280;9136;48.822;7.966;2023-02-16T12:53:24;101280.09;;;17.73;41.15
18022;BME280;9136;48.822;7.966;2023-02-16T12:56:18;101275.28;;;17.01;41.41
18022;BME280;9136;48.822;7.966;2023-02-16T12:59:16;101264.06;;;16.07;43.85
18022;BME280;9136;48.822;7.966;2023-02-16T13:02:16;101269.22;;;16.34;43.78
18022;BME280;9136;48.822;7.966;2023-02-16T13:05:10;101267.28;;;16.59;43.39
18022;BME280;9136;48.822;7.966;2023-02-16T13:08:06;101256.56;;;15.73;43.49
18022;BME280;9136;48.822;7.966;2023-02-16T13:11:02;101261.59;;;15.06;47.37
18022;BME280;9136;48.822;7.966;2023-02-16T13:13:51;101267.31;;;14.38;48.04
18022;BME280;9136;48.822;7.966;2023-02-16T13:16:46;101256.63;;;14.97;46.99
18022;BME280;9136;48.822;7.966;2023-02-16T13:19:36;101255.84;;;15.68;46.63
18022;BME280;9136;48.822;7.966;2023-02-16T13:22:40;101257.13;;;16.26;44.50
18022;BME280;9136;48.822;7.966;2023-02-16T13:32:24;101253.31;;;15.65;46.33
18022;BME280;9136;48.822;7.966;2023-02-16T13:35:32;101251.16;;;15.01;46.18
18022;BME280;9136;48.822;7.966;2023-02-16T13:38:40;101253.13;;;14.70;47.32
18022;BME280;9136;48.822;7.966;2023-02-16T13:41:58;101237.66;;;14.57;46.86
18022;BME280;9136;48.822;7.966;2023-02-16T13:44:49;101237.69;;;14.56;48.11
18022;BME280;9136;48.822;7.966;2023-02-16T13:47:39;101225.00;;;14.39;48.40
18022;BME280;9136;48.822;7.966;2023-02-16T13:50:31;101213.34;;;13.90;49.53
18022;BME280;9136;48.822;7.966;2023-02-16T13:53:21;101229.69;;;13.73;50.98
18022;BME280;9136;48.822;7.966;2023-02-16T13:56:31;101228.66;;;13.78;51.68
18022;BME280;9136;48.822;7.966;2023-02-16T14:02:57;101217.44;;;13.40;53.24
18022;BME280;9136;48.822;7.966;2023-02-16T14:05:47;101221.91;;;13.38;54.20
18022;BME280;9136;48.822;7.966;2023-02-16T14:08:35;101212.94;;;13.11;55.09
18022;BME280;9136;48.822;7.966;2023-02-16T14:11:23;101200.88;;;13.02;57.35
18022;BME280;9136;48.822;7.966;2023-02-16T14:14:26;101186.38;;;12.86;59.39
18022;BME280;9136;48.822;7.966;2023-02-16T14:17:15;101204.41;;;13.01;59.84
18022;BME280;9136;48.822;7.966;2023-02-16T14:20:24;101183.34;;;13.00;59.24
18022;BME280;9136;48.822;7.966;2023-02-16T14:23:26;101172.75;;;13.01;59.20
18022;BME280;9136;48.822;7.966;2023-02-16T14:26:19;101189.34;;;13.06;59.28
18022;BME280;9136;48.822;7.966;2023-02-16T14:29:11;101185.50;;;13.18;58.19
18022;BME280;9136;48.822;7.966;2023-02-16T14:32:05;101169.91;;;13.09;59.08
18022;BME280;9136;48.822;7.966;2023-02-16T14:35:05;101177.28;;;12.98;60.91
18022;BME280;9136;48.822;7.966;2023-02-16T14:37:56;101178.78;;;13.06;60.69
18022;BME280;9136;48.822;7.966;2023-02-16T14:40:50;101182.44;;;13.01;60.99
18022;BME280;9136;48.822;7.966;2023-02-16T14:43:43;101154.06;;;12.78;62.05
18022;BME280;9136;48.822;7.966;2023-02-16T14:46:43;101165.28;;;12.86;62.96
18022;BME280;9136;48.822;7.966;2023-02-16T14:49:59;101173.41;;;12.78;63.76
18022;BME280;9136;48.822;7.966;2023-02-16T14:53:13;101182.31;;;12.73;63.47
18022;BME280;9136;48.822;7.966;2023-02-16T14:56:17;101178.03;;;12.69;63.60
18022;BME280;9136;48.822;7.966;2023-02-16T14:59:19;101167.66;;;12.63;63.57
18022;BME280;9136;48.822;7.966;2023-02-16T15:02:36;101178.81;;;12.72;63.08
18022;BME280;9136;48.822;7.966;2023-02-16T15:05:27;101174.50;;;12.70;63.10
18022;BME280;9136;48.822;7.966;2023-02-16T15:08:17;101167.50;;;12.69;62.00
18022;BME280;9136;48.822;7.966;2023-02-16T15:11:18;101169.97;;;12.75;61.66
18022;BME280;9136;48.822;7.966;2023-02-16T15:14:09;101155.19;;;12.69;61.45
18022;BME280;9136;48.822;7.966;2023-02-16T15:16:57;101163.03;;;12.71;62.00
18022;BME280;9136;48.822;7.966;2023-02-16T15:19:45;101170.84;;;12.75;61.50